Time,TemperatureF,DewpointF,PressureIn,WindDirection,WindDirectionDegrees,WindSpeedMPH,WindSpeedGustMPH,Humidity,HourlyPrecipIn,Conditions,Clouds,dailyrainin,SolarRadiationWatts/m^2,SoftwareType,DateUTC
2013-03-19 00:02:00,49.8,41.5,30.22,SSW,200,0.0,1.0,73,0.00,,,0.00,0.0,meteohub,2013-03-19 07:02:00,
2013-03-19 00:07:00,49.8,41.5,30.22,SSW,200,1.0,1.0,73,0.00,,,0.00,0.0,meteohub,2013-03-19 07:07:00,
2013-03-19 00:12:00,49.5,41.9,30.23,SSW,200,0.0,1.0,75,0.00,,,0.00,0.0,meteohub,2013-03-19 07:12:00,
2013-03-19 00:17:00,49.5,41.9,30.23,SSW,200,0.0,1.0,75,0.00,,,0.00,0.0,meteohub,2013-03-19 07:17:00,
2013-03-19 00:22:00,49.1,41.9,30.23,SSW,200,0.0,1.0,76,0.00,,,0.00,0.0,meteohub,2013-03-19 07:22:00,
2013-03-19 00:32:00,48.7,42.3,30.23,SSW,200,0.0,0.0,78,0.00,,,0.00,0.0,meteohub,2013-03-19 07:32:00,
2013-03-19 00:37:00,48.4,42.3,30.23,SSW,200,0.0,0.0,79,0.00,,,0.00,0.0,meteohub,2013-03-19 07:37:00,
2013-03-19 00:42:00,48.2,42.1,30.23,SSW,200,0.0,1.0,79,0.00,,,0.00,0.0,meteohub,2013-03-19 07:42:00,
2013-03-19 00:47:00,48.0,41.9,30.23,SSW,200,0.0,1.0,79,0.00,,,0.00,0.0,meteohub,2013-03-19 07:47:00,
2013-03-19 00:52:00,47.8,41.9,30.22,SSW,200,0.0,1.0,80,0.00,,,0.00,0.0,meteohub,2013-03-19 07:52:00,
2013-03-19 00:57:00,47.7,41.7,30.23,SSW,200,0.0,0.0,80,0.00,,,0.00,0.0,meteohub,2013-03-19 07:57:00,
2013-03-19 01:02:00,47.7,42.1,30.23,SSW,200,0.0,0.0,81,0.00,,,0.00,0.0,meteohub,2013-03-19 08:02:00,
2013-03-19 01:07:00,47.8,42.3,30.23,SSW,200,0.0,1.0,81,0.00,,,0.00,0.0,meteohub,2013-03-19 08:07:00,
2013-03-19 01:12:00,47.5,41.9,30.23,SSW,200,0.0,1.0,81,0.00,,,0.00,0.0,meteohub,2013-03-19 08:12:00,
2013-03-19 01:17:00,47.3,42.1,30.23,SSW,200,0.0,0.0,82,0.00,,,0.00,0.0,meteohub,2013-03-19 08:17:00,
2013-03-19 01:22:00,47.5,42.6,30.23,SSW,200,0.0,1.0,83,0.00,,,0.00,0.0,meteohub,2013-03-19 08:22:00,
2013-03-19 01:27:00,47.5,42.6,30.23,SSW,200,0.0,1.0,83,0.00,,,0.00,0.0,meteohub,2013-03-19 08:27:00,
2013-03-19 01:32:00,47.1,42.3,30.23,SSW,200,0.0,1.0,83,0.00,,,0.00,0.0,meteohub,2013-03-19 08:32:00,
2013-03-19 01:37:00,47.5,42.8,30.23,SSW,200,0.0,1.0,84,0.00,,,0.00,0.0,meteohub,2013-03-19 08:37:00,
2013-03-19 01:42:00,47.5,42.6,30.22,SSW,200,0.0,1.0,83,0.00,,,0.00,0.0,meteohub,2013-03-19 08:42:00,
2013-03-19 01:47:00,47.3,42.8,30.22,SSW,200,0.0,1.0,84,0.00,,,0.00,0.0,meteohub,2013-03-19 08:47:00,
2013-03-19 01:52:00,47.5,43.2,30.22,SSW,200,0.0,1.0,85,0.00,,,0.00,0.0,meteohub,2013-03-19 08:52:00,
2013-03-19 01:57:00,47.8,43.5,30.22,SSW,200,0.0,1.0,85,0.00,,,0.00,0.0,meteohub,2013-03-19 08:57:00,
2013-03-19 02:02:00,47.8,43.5,30.23,SSW,200,0.0,1.0,85,0.00,,,0.00,0.0,meteohub,2013-03-19 09:02:00,
2013-03-19 02:07:00,48.0,43.7,30.23,SSW,200,0.0,1.0,85,0.00,,,0.00,0.0,meteohub,2013-03-19 09:07:00,
2013-03-19 02:12:00,48.2,43.9,30.22,SSW,200,0.0,1.0,85,0.00,,,0.00,0.0,meteohub,2013-03-19 09:12:00,
2013-03-19 02:17:00,48.2,43.9,30.22,SSW,200,0.0,1.0,85,0.00,,,0.00,0.0,meteohub,2013-03-19 09:17:00,
2013-03-19 02:22:00,48.4,43.7,30.23,SSW,200,0.0,1.0,84,0.00,,,0.00,0.0,meteohub,2013-03-19 09:22:00,
2013-03-19 02:32:00,48.6,43.7,30.23,SSW,200,0.0,0.0,83,0.00,,,0.00,0.0,meteohub,2013-03-19 09:32:00,
2013-03-19 02:42:00,48.6,43.9,30.23,SSW,200,0.0,0.0,84,0.00,,,0.00,0.0,meteohub,2013-03-19 09:42:00,
2013-03-19 02:47:00,48.4,43.7,30.23,SSW,200,0.0,0.0,84,0.00,,,0.00,0.0,meteohub,2013-03-19 09:47:00,
2013-03-19 02:57:00,48.7,43.9,30.22,SSW,200,0.0,0.0,83,0.00,,,0.00,0.0,meteohub,2013-03-19 09:57:00,
2013-03-19 03:02:00,48.7,43.9,30.22,SSW,200,0.0,0.0,83,0.00,,,0.00,0.0,meteohub,2013-03-19 10:02:00,
2013-03-19 03:07:00,48.7,43.9,30.22,SSW,200,0.0,0.0,83,0.00,,,0.00,0.0,meteohub,2013-03-19 10:07:00,
2013-03-19 03:17:00,48.7,43.9,30.22,SSW,200,0.0,0.0,83,0.00,,,0.00,0.0,meteohub,2013-03-19 10:17:00,
2013-03-19 03:27:00,48.6,43.9,30.22,SSW,200,0.0,0.0,84,0.00,,,0.00,0.0,meteohub,2013-03-19 10:27:00,
2013-03-19 03:32:00,48.6,43.9,30.22,SSW,200,0.0,0.0,84,0.00,,,0.00,0.0,meteohub,2013-03-19 10:32:00,
2013-03-19 03:37:00,48.6,43.9,30.21,SSW,200,0.0,0.0,84,0.00,,,0.00,0.0,meteohub,2013-03-19 10:37:00,
2013-03-19 03:47:00,48.7,43.9,30.21,SSW,200,0.0,1.0,83,0.00,,,0.00,0.0,meteohub,2013-03-19 10:47:00,
2013-03-19 03:57:00,48.7,43.9,30.20,SSW,200,0.0,1.0,83,0.00,,,0.00,0.0,meteohub,2013-03-19 10:57:00,
2013-03-19 04:02:00,48.6,43.7,30.20,SSW,200,0.0,1.0,83,0.00,,,0.00,0.0,meteohub,2013-03-19 11:02:00,
2013-03-19 04:07:00,48.6,43.7,30.20,SSW,200,0.0,0.0,83,0.00,,,0.00,0.0,meteohub,2013-03-19 11:07:00,
2013-03-19 04:12:00,48.6,43.7,30.20,SSW,200,0.0,0.0,83,0.00,,,0.00,0.0,meteohub,2013-03-19 11:12:00,
2013-03-19 04:17:00,48.7,43.5,30.19,SSW,200,0.0,0.0,82,0.00,,,0.00,0.0,meteohub,2013-03-19 11:17:00,
2013-03-19 04:27:00,48.9,43.0,30.20,SSW,200,0.0,0.0,80,0.00,,,0.00,0.0,meteohub,2013-03-19 11:27:00,
2013-03-19 04:32:00,49.3,42.8,30.20,SSW,200,0.0,0.0,78,0.00,,,0.00,0.0,meteohub,2013-03-19 11:32:00,
2013-03-19 04:42:00,48.9,42.4,30.19,SSW,200,0.0,0.0,78,0.00,,,0.00,0.0,meteohub,2013-03-19 11:42:00,
2013-03-19 04:52:00,48.6,42.1,30.20,SSW,200,0.0,0.0,78,0.00,,,0.00,0.0,meteohub,2013-03-19 11:52:00,
2013-03-19 04:57:00,48.6,41.7,30.20,SSW,200,0.0,0.0,77,0.00,,,0.00,0.0,meteohub,2013-03-19 11:57:00,
2013-03-19 05:02:00,48.6,41.7,30.20,SSW,200,0.0,0.0,77,0.00,,,0.00,0.0,meteohub,2013-03-19 12:02:00,
2013-03-19 05:07:00,48.4,41.9,30.20,SSW,200,0.0,0.0,78,0.00,,,0.00,0.0,meteohub,2013-03-19 12:07:00,
2013-03-19 05:12:00,48.2,41.7,30.20,SSW,200,0.0,0.0,78,0.00,,,0.00,0.0,meteohub,2013-03-19 12:12:00,
2013-03-19 05:17:00,47.8,41.4,30.21,SSW,200,0.0,0.0,78,0.00,,,0.00,0.0,meteohub,2013-03-19 12:17:00,
2013-03-19 05:22:00,47.8,41.4,30.21,SSW,200,0.0,0.0,78,0.00,,,0.00,0.0,meteohub,2013-03-19 12:22:00,
2013-03-19 05:27:00,47.8,41.4,30.21,SSW,200,0.0,0.0,78,0.00,,,0.00,0.0,meteohub,2013-03-19 12:27:00,
2013-03-19 05:32:00,47.5,41.4,30.21,SSW,200,0.0,0.0,79,0.00,,,0.00,0.0,meteohub,2013-03-19 12:32:00,
2013-03-19 05:37:00,47.5,41.4,30.21,SSW,200,0.0,0.0,79,0.00,,,0.00,0.0,meteohub,2013-03-19 12:37:00,
2013-03-19 05:42:00,47.5,41.4,30.21,SSW,200,0.0,0.0,79,0.00,,,0.00,0.0,meteohub,2013-03-19 12:42:00,
2013-03-19 05:47:00,47.1,41.0,30.22,SSW,200,0.0,0.0,79,0.00,,,0.00,0.0,meteohub,2013-03-19 12:47:00,
2013-03-19 05:57:00,46.8,41.0,30.21,SSW,200,0.0,0.0,80,0.00,,,0.00,0.0,meteohub,2013-03-19 12:57:00,
2013-03-19 06:02:00,46.6,40.8,30.22,SSW,200,0.0,0.0,80,0.00,,,0.00,0.0,meteohub,2013-03-19 13:02:00,
2013-03-19 06:07:00,46.6,41.0,30.21,SSW,200,0.0,0.0,81,0.00,,,0.00,0.0,meteohub,2013-03-19 13:07:00,
2013-03-19 06:12:00,46.6,41.0,30.22,SSW,200,0.0,0.0,81,0.00,,,0.00,0.0,meteohub,2013-03-19 13:12:00,
2013-03-19 06:22:00,46.2,40.5,30.22,SSW,200,0.0,0.0,80,0.00,,,0.00,0.0,meteohub,2013-03-19 13:22:00,
2013-03-19 06:27:00,46.2,40.5,30.22,SSW,200,0.0,0.0,80,0.00,,,0.00,0.0,meteohub,2013-03-19 13:27:00,
2013-03-19 06:32:00,46.2,40.5,30.22,SSW,200,0.0,0.0,80,0.00,,,0.00,0.0,meteohub,2013-03-19 13:32:00,
2013-03-19 06:42:00,46.0,40.3,30.22,SSW,200,0.0,0.0,80,0.00,,,0.00,0.0,meteohub,2013-03-19 13:42:00,
2013-03-19 06:47:00,46.0,40.5,30.22,SSW,200,0.0,0.0,81,0.00,,,0.00,0.0,meteohub,2013-03-19 13:47:00,
2013-03-19 06:52:00,46.0,40.5,30.22,SSW,200,0.0,0.0,81,0.00,,,0.00,0.0,meteohub,2013-03-19 13:52:00,
2013-03-19 07:02:00,46.0,40.5,30.22,SSW,200,0.0,0.0,81,0.00,,,0.00,0.0,meteohub,2013-03-19 14:02:00,
2013-03-19 07:07:00,46.0,40.5,30.22,SSW,200,0.0,0.0,81,0.00,,,0.00,0.0,meteohub,2013-03-19 14:07:00,
2013-03-19 07:12:00,46.0,40.5,30.22,SSW,200,0.0,0.0,81,0.00,,,0.00,0.0,meteohub,2013-03-19 14:12:00,
2013-03-19 07:17:00,45.9,40.3,30.22,SSW,200,0.0,0.0,81,0.00,,,0.00,0.0,meteohub,2013-03-19 14:17:00,
2013-03-19 07:22:00,45.7,40.1,30.22,SSW,200,0.0,0.0,81,0.00,,,0.00,5.0,meteohub,2013-03-19 14:22:00,
2013-03-19 07:27:00,45.7,40.5,30.23,SSW,200,0.0,0.0,82,0.00,,,0.00,9.0,meteohub,2013-03-19 14:27:00,
2013-03-19 07:37:00,46.2,39.4,30.22,SSW,200,0.0,0.0,77,0.00,,,0.00,16.0,meteohub,2013-03-19 14:37:00,
2013-03-19 07:42:00,46.8,39.9,30.23,SSW,200,0.0,0.0,77,0.00,,,0.00,19.0,meteohub,2013-03-19 14:42:00,
2013-03-19 07:47:00,46.9,39.4,30.23,SSW,200,0.0,0.0,75,0.00,,,0.00,25.0,meteohub,2013-03-19 14:47:00,
2013-03-19 07:52:00,47.1,39.6,30.23,SSW,200,0.0,0.0,75,0.00,,,0.00,28.0,meteohub,2013-03-19 14:52:00,
2013-03-19 07:57:00,46.9,40.1,30.23,SSW,200,0.0,0.0,77,0.00,,,0.00,32.0,meteohub,2013-03-19 14:57:00,
2013-03-19 08:02:00,47.1,39.9,30.23,SSW,200,0.0,0.0,76,0.00,,,0.00,33.0,meteohub,2013-03-19 15:02:00,
2013-03-19 08:12:00,47.7,40.5,30.23,SSW,200,0.0,0.0,76,0.00,,,0.00,44.0,meteohub,2013-03-19 15:12:00,
2013-03-19 08:17:00,48.0,40.8,30.23,SSW,200,0.0,0.0,76,0.00,,,0.00,46.0,meteohub,2013-03-19 15:17:00,
2013-03-19 08:22:00,48.0,41.2,30.24,SSW,200,0.0,2.0,77,0.00,,,0.00,49.0,meteohub,2013-03-19 15:22:00,
2013-03-19 08:27:00,48.6,42.1,30.24,SSW,200,0.0,2.0,78,0.00,,,0.00,51.0,meteohub,2013-03-19 15:27:00,
2013-03-19 08:37:00,49.5,41.9,30.23,SSW,200,0.0,1.0,75,0.00,,,0.00,65.0,meteohub,2013-03-19 15:37:00,
2013-03-19 08:42:00,49.8,41.5,30.24,SSW,200,0.0,0.0,73,0.00,,,0.00,70.0,meteohub,2013-03-19 15:42:00,
2013-03-19 08:52:00,50.7,42.8,30.23,SSW,200,0.0,0.0,74,0.00,,,0.00,76.0,meteohub,2013-03-19 15:52:00,
2013-03-19 08:57:00,51.3,43.9,30.24,SSW,200,0.0,0.0,76,0.00,,,0.00,81.0,meteohub,2013-03-19 15:57:00,
2013-03-19 09:07:00,52.3,44.6,30.24,SSW,200,0.0,0.0,75,0.00,,,0.00,83.0,meteohub,2013-03-19 16:07:00,
2013-03-19 09:17:00,53.4,46.0,30.24,SSW,200,0.0,0.0,76,0.00,,,0.00,91.0,meteohub,2013-03-19 16:17:00,
2013-03-19 09:22:00,54.0,45.5,30.24,SSW,200,0.0,0.0,73,0.00,,,0.00,100.0,meteohub,2013-03-19 16:22:00,
2013-03-19 09:27:00,54.7,44.2,30.24,SSW,200,0.0,0.0,68,0.00,,,0.00,105.0,meteohub,2013-03-19 16:27:00,
2013-03-19 09:37:00,55.8,43.7,30.23,SSW,200,0.0,1.0,64,0.00,,,0.00,134.0,meteohub,2013-03-19 16:37:00,
2013-03-19 09:42:00,56.1,42.8,30.23,SSW,200,0.0,1.0,61,0.00,,,0.00,121.0,meteohub,2013-03-19 16:42:00,
2013-03-19 09:52:00,57.0,42.8,30.23,SSW,200,0.0,0.0,59,0.00,,,0.00,130.0,meteohub,2013-03-19 16:52:00,
2013-03-19 09:57:00,57.6,45.5,30.23,SSW,201,1.0,0.0,64,0.00,,,0.00,134.0,meteohub,2013-03-19 16:57:00,
2013-03-19 10:02:00,57.7,45.7,30.24,SSW,201,1.0,2.0,64,0.00,,,0.00,135.0,meteohub,2013-03-19 17:02:00,
2013-03-19 10:07:00,58.1,43.3,30.24,SSW,201,0.0,2.0,58,0.00,,,0.00,142.0,meteohub,2013-03-19 17:07:00,
2013-03-19 10:12:00,58.5,43.7,30.24,WSW,240,2.0,2.0,58,0.00,,,0.00,149.0,meteohub,2013-03-19 17:12:00,
2013-03-19 10:17:00,59.0,44.8,30.24,SW,236,3.0,3.0,59,0.00,,,0.00,153.0,meteohub,2013-03-19 17:17:00,
2013-03-19 10:27:00,60.1,40.8,30.24,West,265,5.0,10.0,49,0.00,,,0.00,171.0,meteohub,2013-03-19 17:27:00,
2013-03-19 10:32:00,60.3,42.1,30.25,WSW,244,4.0,11.0,51,0.00,,,0.00,178.0,meteohub,2013-03-19 17:32:00,
2013-03-19 10:37:00,60.1,42.4,30.25,WNW,290,3.0,11.0,52,0.00,,,0.00,176.0,meteohub,2013-03-19 17:37:00,
2013-03-19 10:42:00,59.9,42.3,30.25,SW,236,4.0,11.0,52,0.00,,,0.00,179.0,meteohub,2013-03-19 17:42:00,
2013-03-19 10:52:00,60.3,42.1,30.25,WNW,282,1.0,12.0,51,0.00,,,0.00,192.0,meteohub,2013-03-19 17:52:00,
2013-03-19 10:57:00,60.4,42.3,30.25,West,269,2.0,9.0,51,0.00,,,0.00,193.0,meteohub,2013-03-19 17:57:00,
2013-03-19 11:07:00,61.2,42.4,30.24,West,278,4.0,7.0,50,0.00,,,0.00,183.0,meteohub,2013-03-19 18:07:00,
2013-03-19 11:12:00,61.9,42.4,30.24,NW,311,1.0,6.0,49,0.00,,,0.00,181.0,meteohub,2013-03-19 18:12:00,
2013-03-19 11:17:00,62.6,42.6,30.24,West,274,0.0,4.0,48,0.00,,,0.00,202.0,meteohub,2013-03-19 18:17:00,
2013-03-19 11:22:00,63.7,40.1,30.23,West,262,3.0,6.0,42,0.00,,,0.00,209.0,meteohub,2013-03-19 18:22:00,
2013-03-19 11:27:00,64.2,42.4,30.23,NNW,334,2.0,6.0,45,0.00,,,0.00,253.0,meteohub,2013-03-19 18:27:00,
2013-03-19 11:32:00,64.2,43.5,30.24,WNW,290,0.0,6.0,47,0.00,,,0.00,288.0,meteohub,2013-03-19 18:32:00,
2013-03-19 11:42:00,65.5,43.5,30.24,West,276,0.0,5.0,45,0.00,,,0.00,308.0,meteohub,2013-03-19 18:42:00,
2013-03-19 11:52:00,66.0,44.1,30.23,West,269,4.0,5.0,45,0.00,,,0.00,401.0,meteohub,2013-03-19 18:52:00,
2013-03-19 11:57:00,66.0,43.5,30.24,WNW,300,1.0,5.0,44,0.00,,,0.00,387.0,meteohub,2013-03-19 18:57:00,
2013-03-19 12:07:00,66.7,43.0,30.23,West,270,3.0,6.0,42,0.00,,,0.00,548.0,meteohub,2013-03-19 19:07:00,
2013-03-19 12:12:00,66.7,44.1,30.24,WSW,245,8.0,8.0,44,0.00,,,0.00,390.0,meteohub,2013-03-19 19:12:00,
2013-03-19 12:17:00,66.7,45.3,30.24,WNW,299,3.0,9.0,46,0.00,,,0.00,362.0,meteohub,2013-03-19 19:17:00,
2013-03-19 12:27:00,67.3,46.4,30.24,WNW,293,5.0,9.0,47,0.00,,,0.00,415.0,meteohub,2013-03-19 19:27:00,
2013-03-19 12:32:00,67.3,45.9,30.23,WNW,294,1.0,9.0,46,0.00,,,0.00,352.0,meteohub,2013-03-19 19:32:00,
2013-03-19 12:37:00,67.5,46.0,30.23,WNW,286,1.0,7.0,46,0.00,,,0.00,316.0,meteohub,2013-03-19 19:37:00,
2013-03-19 12:42:00,67.5,45.3,30.23,West,274,1.0,7.0,45,0.00,,,0.00,338.0,meteohub,2013-03-19 19:42:00,
2013-03-19 12:47:00,67.5,47.1,30.23,West,274,2.0,5.0,48,0.00,,,0.00,441.0,meteohub,2013-03-19 19:47:00,
2013-03-19 12:57:00,68.9,47.8,30.23,WSW,248,5.0,5.0,47,0.00,,,0.00,497.0,meteohub,2013-03-19 19:57:00,
2013-03-19 13:02:00,69.1,46.8,30.23,WSW,246,3.0,6.0,45,0.00,,,0.00,462.0,meteohub,2013-03-19 20:02:00,
2013-03-19 13:07:00,68.9,45.5,30.23,WSW,252,4.0,6.0,43,0.00,,,0.00,432.0,meteohub,2013-03-19 20:07:00,
2013-03-19 13:17:00,68.5,47.5,30.22,SW,224,3.0,8.0,47,0.00,,,0.00,432.0,meteohub,2013-03-19 20:17:00,
2013-03-19 13:22:00,68.7,47.7,30.23,WSW,246,1.0,8.0,47,0.00,,,0.00,501.0,meteohub,2013-03-19 20:22:00,
2013-03-19 13:27:00,69.3,46.4,30.22,WNW,292,5.0,7.0,44,0.00,,,0.00,480.0,meteohub,2013-03-19 20:27:00,
2013-03-19 13:37:00,69.4,47.8,30.22,WNW,297,0.0,5.0,46,0.00,,,0.00,563.0,meteohub,2013-03-19 20:37:00,
2013-03-19 13:47:00,70.0,47.7,30.22,WSW,238,5.0,6.0,45,0.00,,,0.00,513.0,meteohub,2013-03-19 20:47:00,
2013-03-19 13:52:00,69.3,45.9,30.22,WSW,256,4.0,7.0,43,0.00,,,0.00,462.0,meteohub,2013-03-19 20:52:00,
2013-03-19 13:57:00,69.4,46.0,30.22,West,272,7.0,11.0,43,0.00,,,0.00,628.0,meteohub,2013-03-19 20:57:00,
2013-03-19 14:02:00,69.6,45.5,30.22,West,265,5.0,11.0,42,0.00,,,0.00,541.0,meteohub,2013-03-19 21:02:00,
2013-03-19 14:12:00,69.3,46.4,30.22,WNW,292,6.0,9.0,44,0.00,,,0.00,469.0,meteohub,2013-03-19 21:12:00,
2013-03-19 14:22:00,68.4,46.2,30.22,WNW,297,5.0,12.0,45,0.00,,,0.00,431.0,meteohub,2013-03-19 21:22:00,
2013-03-19 14:32:00,67.5,45.3,30.22,West,268,5.0,12.0,45,0.00,,,0.00,325.0,meteohub,2013-03-19 21:32:00,
2013-03-19 14:37:00,66.6,43.3,30.22,West,280,7.0,13.0,43,0.00,,,0.00,229.0,meteohub,2013-03-19 21:37:00,
2013-03-19 14:47:00,64.9,43.2,30.22,West,263,11.0,13.0,45,0.00,,,0.00,221.0,meteohub,2013-03-19 21:47:00,
2013-03-19 14:57:00,64.8,44.6,30.22,West,263,4.0,13.0,48,0.00,,,0.00,236.0,meteohub,2013-03-19 21:57:00,
2013-03-19 15:02:00,64.9,44.2,30.22,West,259,2.0,12.0,47,0.00,,,0.00,244.0,meteohub,2013-03-19 22:02:00,
2013-03-19 15:12:00,64.8,44.1,30.22,SW,235,7.0,9.0,47,0.00,,,0.00,171.0,meteohub,2013-03-19 22:12:00,
2013-03-19 15:22:00,64.2,44.6,30.22,WSW,240,3.0,9.0,49,0.00,,,0.00,135.0,meteohub,2013-03-19 22:22:00,
2013-03-19 15:32:00,64.2,45.1,30.22,SW,230,4.0,8.0,50,0.00,,,0.00,149.0,meteohub,2013-03-19 22:32:00,
2013-03-19 15:37:00,64.2,45.1,30.22,WNW,286,5.0,8.0,50,0.00,,,0.00,149.0,meteohub,2013-03-19 22:37:00,
2013-03-19 15:42:00,64.2,44.6,30.22,WSW,242,4.0,8.0,49,0.00,,,0.00,153.0,meteohub,2013-03-19 22:42:00,
2013-03-19 15:52:00,64.0,45.0,30.22,West,262,4.0,10.0,50,0.00,,,0.00,162.0,meteohub,2013-03-19 22:52:00,
2013-03-19 15:57:00,63.9,45.3,30.22,SW,224,7.0,10.0,51,0.00,,,0.00,127.0,meteohub,2013-03-19 22:57:00,
2013-03-19 16:02:00,63.5,45.0,30.22,West,275,5.0,11.0,51,0.00,,,0.00,121.0,meteohub,2013-03-19 23:02:00,
2013-03-19 16:07:00,63.3,45.3,30.22,West,272,6.0,11.0,52,0.00,,,0.00,125.0,meteohub,2013-03-19 23:07:00,
2013-03-19 16:12:00,63.1,45.7,30.22,West,265,3.0,11.0,53,0.00,,,0.00,88.0,meteohub,2013-03-19 23:12:00,
2013-03-19 16:17:00,63.0,45.5,30.23,West,261,2.0,10.0,53,0.00,,,0.00,72.0,meteohub,2013-03-19 23:17:00,
2013-03-19 16:27:00,62.2,46.4,30.22,West,276,1.0,6.0,56,0.00,,,0.00,58.0,meteohub,2013-03-19 23:27:00,
2013-03-19 16:37:00,61.7,45.9,30.23,WSW,250,1.0,6.0,56,0.00,,,0.00,53.0,meteohub,2013-03-19 23:37:00,
2013-03-19 16:42:00,61.5,45.7,30.23,West,260,2.0,6.0,56,0.00,,,0.00,56.0,meteohub,2013-03-19 23:42:00,
2013-03-19 16:47:00,61.3,45.5,30.23,West,260,3.0,6.0,56,0.00,,,0.00,58.0,meteohub,2013-03-19 23:47:00,
2013-03-19 16:57:00,61.5,46.2,30.23,WSW,240,4.0,5.0,57,0.00,,,0.00,77.0,meteohub,2013-03-19 23:57:00,
2013-03-19 17:02:00,61.5,45.7,30.23,West,262,4.0,7.0,56,0.00,,,0.00,79.0,meteohub,2013-03-20 00:02:00,
2013-03-19 17:07:00,61.7,46.4,30.23,WSW,238,2.0,7.0,57,0.00,,,0.00,91.0,meteohub,2013-03-20 00:07:00,
2013-03-19 17:17:00,61.5,46.2,30.24,WSW,238,6.0,6.0,57,0.00,,,0.00,91.0,meteohub,2013-03-20 00:17:00,
2013-03-19 17:22:00,61.5,45.1,30.25,SSW,209,4.0,9.0,55,0.00,,,0.00,58.0,meteohub,2013-03-20 00:22:00,
2013-03-19 17:27:00,60.8,44.1,30.25,West,262,9.0,16.0,54,0.00,,,0.00,44.0,meteohub,2013-03-20 00:27:00,
2013-03-19 17:37:00,58.8,43.2,30.25,WSW,258,4.0,16.0,56,0.00,,,0.00,33.0,meteohub,2013-03-20 00:37:00,
2013-03-19 17:47:00,58.3,42.6,30.25,West,264,4.0,13.0,56,0.00,,,0.00,39.0,meteohub,2013-03-20 00:47:00,
2013-03-19 17:57:00,57.9,42.3,30.25,West,263,4.0,10.0,56,0.00,,,0.00,35.0,meteohub,2013-03-20 00:57:00,
2013-03-19 18:02:00,57.9,42.3,30.25,WSW,251,2.0,9.0,56,0.00,,,0.00,39.0,meteohub,2013-03-20 01:02:00,
2013-03-19 18:07:00,57.9,42.3,30.24,SW,234,7.0,9.0,56,0.00,,,0.00,30.0,meteohub,2013-03-20 01:07:00,
2013-03-19 18:17:00,57.7,41.2,30.24,West,269,7.0,12.0,54,0.00,,,0.00,26.0,meteohub,2013-03-20 01:17:00,
2013-03-19 18:22:00,57.6,42.4,30.25,SW,225,8.0,12.0,57,0.00,,,0.00,25.0,meteohub,2013-03-20 01:22:00,
2013-03-19 18:27:00,57.4,42.8,30.25,West,264,6.0,14.0,58,0.00,,,0.00,11.0,meteohub,2013-03-20 01:27:00,
2013-03-19 18:32:00,56.8,42.3,30.26,West,278,8.0,14.0,58,0.00,,,0.00,9.0,meteohub,2013-03-20 01:32:00,
2013-03-19 18:42:00,55.4,41.7,30.26,West,279,4.0,15.0,60,0.00,,,0.00,9.0,meteohub,2013-03-20 01:42:00,
2013-03-19 18:47:00,54.9,41.2,30.27,WSW,241,5.0,15.0,60,0.00,,,0.00,5.0,meteohub,2013-03-20 01:47:00,
2013-03-19 18:52:00,54.1,39.2,30.27,WSW,250,8.0,14.0,57,0.00,,,0.00,0.0,meteohub,2013-03-20 01:52:00,
2013-03-19 18:57:00,53.6,39.2,30.27,West,267,7.0,13.0,58,0.00,,,0.00,0.0,meteohub,2013-03-20 01:57:00,
2013-03-19 19:02:00,52.5,39.9,30.27,WSW,247,5.0,13.0,62,0.00,,,0.00,0.0,meteohub,2013-03-20 02:02:00,
2013-03-19 19:12:00,51.1,40.8,30.27,West,279,4.0,12.0,68,0.00,,,0.00,0.0,meteohub,2013-03-20 02:12:00,
2013-03-19 19:17:00,50.5,41.2,30.27,SW,225,3.0,10.0,70,0.01,,,0.01,0.0,meteohub,2013-03-20 02:17:00,
2013-03-19 19:22:00,50.0,42.1,30.27,WSW,248,2.0,7.0,74,0.01,,,0.01,0.0,meteohub,2013-03-20 02:22:00,
2013-03-19 19:32:00,49.5,41.9,30.26,WSW,251,0.0,7.0,75,0.01,,,0.01,0.0,meteohub,2013-03-20 02:32:00,
2013-03-19 19:37:00,48.9,41.7,30.26,WNW,298,0.0,7.0,76,0.01,,,0.01,0.0,meteohub,2013-03-20 02:37:00,
2013-03-19 19:42:00,48.4,41.9,30.27,SW,219,0.0,4.0,78,0.02,,,0.02,0.0,meteohub,2013-03-20 02:42:00,
2013-03-19 19:52:00,47.5,41.9,30.26,WSW,254,0.0,4.0,81,0.03,,,0.03,0.0,meteohub,2013-03-20 02:52:00,
2013-03-19 19:57:00,47.1,41.9,30.26,West,261,0.0,4.0,82,0.03,,,0.03,0.0,meteohub,2013-03-20 02:57:00,
2013-03-19 20:02:00,46.9,41.7,30.27,West,261,0.0,2.0,82,0.03,,,0.03,0.0,meteohub,2013-03-20 03:02:00,
2013-03-19 20:12:00,46.9,42.6,30.26,West,261,0.0,2.0,85,0.03,,,0.03,0.0,meteohub,2013-03-20 03:12:00,
2013-03-19 20:22:00,46.8,43.2,30.26,West,261,0.0,1.0,87,0.03,,,0.04,0.0,meteohub,2013-03-20 03:22:00,
2013-03-19 20:27:00,46.8,42.8,30.26,West,261,0.0,1.0,86,0.03,,,0.04,0.0,meteohub,2013-03-20 03:27:00,
2013-03-19 20:32:00,46.8,42.8,30.26,West,261,0.0,1.0,86,0.03,,,0.04,0.0,meteohub,2013-03-20 03:32:00,
2013-03-19 20:37:00,46.9,43.3,30.26,West,261,0.0,1.0,87,0.02,,,0.04,0.0,meteohub,2013-03-20 03:37:00,
2013-03-19 20:42:00,46.9,43.5,30.26,West,261,0.0,1.0,88,0.02,,,0.04,0.0,meteohub,2013-03-20 03:42:00,
2013-03-19 20:52:00,47.1,42.3,30.25,West,261,0.0,1.0,83,0.01,,,0.04,0.0,meteohub,2013-03-20 03:52:00,
2013-03-19 21:02:00,47.3,42.4,30.25,West,261,0.0,2.0,83,0.01,,,0.04,0.0,meteohub,2013-03-20 04:02:00,
2013-03-19 21:12:00,47.1,43.5,30.25,West,261,0.0,0.0,87,0.01,,,0.04,0.0,meteohub,2013-03-20 04:12:00,
2013-03-19 21:17:00,46.9,43.3,30.24,West,261,0.0,0.0,87,0.00,,,0.04,0.0,meteohub,2013-03-20 04:17:00,
2013-03-19 21:22:00,46.8,43.3,30.24,West,261,0.0,0.0,88,0.00,,,0.04,0.0,meteohub,2013-03-20 04:22:00,
2013-03-19 21:27:00,46.8,43.3,30.24,West,261,0.0,1.0,88,0.00,,,0.04,0.0,meteohub,2013-03-20 04:27:00,
2013-03-19 21:37:00,46.8,43.3,30.24,West,261,0.0,1.0,88,0.00,,,0.04,0.0,meteohub,2013-03-20 04:37:00,
2013-03-19 21:42:00,46.8,43.3,30.22,West,261,1.0,0.0,88,0.00,,,0.04,0.0,meteohub,2013-03-20 04:42:00,
2013-03-19 21:47:00,46.9,43.5,30.22,West,261,0.0,2.0,88,0.00,,,0.04,0.0,meteohub,2013-03-20 04:47:00,
2013-03-19 21:52:00,46.9,43.5,30.23,West,261,1.0,2.0,88,0.00,,,0.04,0.0,meteohub,2013-03-20 04:52:00,
2013-03-19 21:57:00,46.9,43.5,30.24,WSW,248,1.0,3.0,88,0.00,,,0.04,0.0,meteohub,2013-03-20 04:57:00,
2013-03-19 22:07:00,46.8,43.3,30.24,WSW,241,0.0,3.0,88,0.00,,,0.04,0.0,meteohub,2013-03-20 05:07:00,
2013-03-19 22:12:00,46.9,43.5,30.24,West,267,0.0,3.0,88,0.00,,,0.04,0.0,meteohub,2013-03-20 05:12:00,
2013-03-19 22:22:00,46.9,43.5,30.24,West,267,0.0,3.0,88,0.00,,,0.04,0.0,meteohub,2013-03-20 05:22:00,
2013-03-19 22:27:00,46.9,43.9,30.24,West,267,0.0,2.0,89,0.00,,,0.04,0.0,meteohub,2013-03-20 05:27:00,
2013-03-19 22:32:00,46.9,43.9,30.24,West,267,0.0,2.0,89,0.00,,,0.04,0.0,meteohub,2013-03-20 05:32:00,
2013-03-19 22:37:00,47.1,44.1,30.24,West,267,0.0,1.0,89,0.00,,,0.04,0.0,meteohub,2013-03-20 05:37:00,
2013-03-19 22:47:00,47.7,44.6,30.24,West,267,0.0,0.0,89,0.00,,,0.04,0.0,meteohub,2013-03-20 05:47:00,
2013-03-19 22:52:00,47.7,44.6,30.24,West,267,0.0,1.0,89,0.00,,,0.04,0.0,meteohub,2013-03-20 05:52:00,
2013-03-19 22:57:00,47.7,45.0,30.24,West,267,0.0,1.0,90,0.00,,,0.04,0.0,meteohub,2013-03-20 05:57:00,
2013-03-19 23:02:00,47.7,45.0,30.24,West,267,0.0,1.0,90,0.00,,,0.04,0.0,meteohub,2013-03-20 06:02:00,
2013-03-19 23:12:00,47.8,45.0,30.25,West,267,0.0,0.0,90,0.00,,,0.04,0.0,meteohub,2013-03-20 06:12:00,
2013-03-19 23:17:00,47.8,44.8,30.25,West,267,0.0,0.0,89,0.00,,,0.04,0.0,meteohub,2013-03-20 06:17:00,
2013-03-19 23:27:00,48.0,45.0,30.24,West,267,0.0,1.0,89,0.00,,,0.04,0.0,meteohub,2013-03-20 06:27:00,
2013-03-19 23:32:00,48.0,45.0,30.24,West,267,0.0,1.0,89,0.00,,,0.04,0.0,meteohub,2013-03-20 06:32:00,
2013-03-19 23:42:00,47.8,45.0,30.24,West,267,0.0,1.0,90,0.00,,,0.04,0.0,meteohub,2013-03-20 06:42:00,
2013-03-19 23:47:00,47.8,45.0,30.25,West,267,0.0,1.0,90,0.00,,,0.04,0.0,meteohub,2013-03-20 06:47:00,
2013-03-19 23:52:00,47.7,45.0,30.24,West,267,0.0,1.0,90,0.00,,,0.04,0.0,meteohub,2013-03-20 06:52:00,